Terminal Aerodrome Forecast
Issued by NWS Blacksburg, VA

Current Version | Previous Version | Graphics & Text | Print | Product List | Glossary Off
Versions: 1 2 3 4 5 6 7 8 9 10 11 12 13 14 15 16 17 18 19 20 21 22 23 24 25 26

000
FTUS41 KRNK 050539
TAFBLF
TAF
KBLF 050539Z 0506/0606 26005KT P6SM SCT080
     FM051800 29006KT P6SM VCSH BKN050
     FM060000 26004KT P6SM BKN100=

USA.gov is the U.S. government's official web portal to all federal, state and local government web resources and services.